Time;durP1;ratioP1;P1;durP2;ratioP2;P2;SDS_P1;SDS_P2;PMS_P1;PMS_P2;Temp;Humidity;BMP_temperature;BMP_pressure;BME280_temperature;BME280_humidity;BME280_pressure;Samples;Min_cycle;Max_cycle;Signal;HPM_P1;HPM_P2
2024/04/18 00:00:58;;;;;;;;;;;;;;;7.31;57.08;101216.94;5242591;27;19931;-87
2024/04/18 00:03:23;;;;;;;;;;;;;;;7.26;56.89;101214.91;5223493;27;20007;-86
2024/04/18 00:05:49;;;;;;;;;;;;;;;7.23;56.64;101208.19;5239847;27;19940;-87
2024/04/18 00:08:14;;;;;;;;;;;;;;;7.20;56.76;101213.13;5237687;27;19932;-87
2024/04/18 00:10:42;;;;;;;;;;;;;;;7.19;56.74;101214.16;5248080;27;19939;-87
2024/04/18 00:13:07;;;;;;;;;;;;;;;7.17;57.22;101216.19;5238417;27;19980;-87
2024/04/18 00:15:33;;;;;;;;;;;;;;;7.14;57.42;101224.63;5234066;27;19932;-86
2024/04/18 00:17:58;;;;;;;;;;;;;;;7.12;56.98;101218.69;5242851;27;19931;-87
2024/04/18 00:20:24;;;;;;;;;;;;;;;7.08;56.76;101217.50;5228969;27;19965;-87
2024/04/18 00:22:49;;;;;;;;;;;;;;;7.04;56.80;101221.63;5228336;27;19991;-87
2024/04/18 00:25:16;;;;;;;;;;;;;;;7.01;56.97;101222.88;5240488;27;19943;-87
2024/04/18 00:27:41;;;;;;;;;;;;;;;6.97;57.08;101221.63;5242199;27;19931;-86
2024/04/18 00:30:07;;;;;;;;;;;;;;;6.94;57.18;101222.88;5228609;27;19939;-87
2024/04/18 00:32:32;;;;;;;;;;;;;;;6.91;57.08;101228.63;5229290;27;20027;-87
2024/04/18 00:34:57;;;;;;;;;;;;;;;6.89;57.54;101230.69;5242902;27;19931;-86
2024/04/18 00:37:22;;;;;;;;;;;;;;;6.86;57.08;101231.13;5233953;27;19931;-87
2024/04/18 00:39:48;;;;;;;;;;;;;;;6.81;57.32;101233.59;5222208;27;19968;-86
2024/04/18 00:42:13;;;;;;;;;;;;;;;6.76;57.12;101233.41;5239945;27;20392;-87
2024/04/18 00:44:38;;;;;;;;;;;;;;;6.74;57.20;101232.81;5228691;27;19940;-87
2024/04/18 00:47:03;;;;;;;;;;;;;;;6.71;57.58;101235.88;5234251;27;19995;-86
2024/04/18 00:49:28;;;;;;;;;;;;;;;6.65;57.51;101228.75;5229298;27;19940;-87
2024/04/18 00:51:54;;;;;;;;;;;;;;;6.63;57.19;101236.09;5236021;27;19938;-88
2024/04/18 00:54:19;;;;;;;;;;;;;;;6.61;58.13;101238.16;5230594;27;19939;-87
2024/04/18 00:56:45;;;;;;;;;;;;;;;6.61;57.78;101236.31;5227514;27;19935;-85
2024/04/18 00:59:12;;;;;;;;;;;;;;;6.60;58.36;101239.19;5232904;27;19940;-87
2024/04/18 01:01:37;;;;;;;;;;;;;;;6.59;57.80;101243.69;5242578;27;19951;-88
2024/04/18 01:04:02;;;;;;;;;;;;;;;6.56;58.04;101238.81;5231175;27;19932;-87
2024/04/18 01:06:29;;;;;;;;;;;;;;;6.52;58.45;101244.75;5239193;27;19961;-87
2024/04/18 01:08:54;;;;;;;;;;;;;;;6.47;59.07;101247.25;5239170;27;20153;-87
2024/04/18 01:11:20;;;;;;;;;;;;;;;6.43;58.94;101246.00;5237894;27;19942;-87
2024/04/18 01:13:45;;;;;;;;;;;;;;;6.44;58.62;101247.63;5239948;27;20001;-88
2024/04/18 01:16:10;;;;;;;;;;;;;;;6.48;58.28;101248.88;5230516;27;20397;-87
2024/04/18 01:18:35;;;;;;;;;;;;;;;6.50;58.44;101244.16;5222867;27;19931;-87
2024/04/18 01:21:01;;;;;;;;;;;;;;;6.50;58.16;101249.47;5253211;27;19966;-87
2024/04/18 01:23:26;;;;;;;;;;;;;;;6.48;58.49;101249.69;5231331;27;19939;-87
2024/04/18 01:25:52;;;;;;;;;;;;;;;6.47;57.85;101245.41;5234677;27;19932;-87
2024/04/18 01:28:17;;;;;;;;;;;;;;;6.44;57.90;101247.63;5226071;27;19947;-87
2024/04/18 01:30:42;;;;;;;;;;;;;;;6.41;57.83;101253.38;5247718;27;19932;-88
2024/04/18 01:33:07;;;;;;;;;;;;;;;6.36;57.87;101249.50;5241288;27;19931;-87
2024/04/18 01:35:32;;;;;;;;;;;;;;;6.33;57.79;101255.25;5236261;27;19932;-87
2024/04/18 01:37:58;;;;;;;;;;;;;;;6.33;57.81;101252.59;5236552;27;19939;-88
2024/04/18 01:40:23;;;;;;;;;;;;;;;6.33;58.10;101257.91;5232500;27;20399;-87
2024/04/18 01:42:48;;;;;;;;;;;;;;;6.32;58.16;101253.59;5232605;27;19932;-87
2024/04/18 01:45:13;;;;;;;;;;;;;;;6.25;58.25;101251.97;5222445;27;19932;-87
2024/04/18 01:47:38;;;;;;;;;;;;;;;6.18;58.44;101251.16;5236656;27;19936;-88
2024/04/18 01:50:04;;;;;;;;;;;;;;;6.14;58.23;101252.63;5237804;27;19932;-88
2024/04/18 01:52:29;;;;;;;;;;;;;;;6.12;58.17;101252.81;5234567;27;20347;-88
2024/04/18 01:54:54;;;;;;;;;;;;;;;6.12;58.15;101254.66;5236596;27;19939;-87
2024/04/18 01:57:19;;;;;;;;;;;;;;;6.09;58.35;101260.38;5232557;27;19932;-87
2024/04/18 01:59:45;;;;;;;;;;;;;;;6.05;58.29;101258.13;5234158;27;19939;-88
2024/04/18 02:02:10;;;;;;;;;;;;;;;6.04;58.10;101259.16;5223936;27;20343;-86
2024/04/18 02:04:35;;;;;;;;;;;;;;;6.07;58.56;101261.41;5230800;27;19947;-87
2024/04/18 02:07:00;;;;;;;;;;;;;;;6.05;58.28;101266.09;5234699;27;20505;-88
2024/04/18 02:09:26;;;;;;;;;;;;;;;6.00;58.74;101268.56;5234148;27;20002;-88
2024/04/18 02:11:52;;;;;;;;;;;;;;;5.95;59.51;101262.25;5235346;27;19939;-88
2024/04/18 02:14:17;;;;;;;;;;;;;;;5.90;59.25;101267.34;5229046;27;20007;-88
2024/04/18 02:16:42;;;;;;;;;;;;;;;5.88;59.18;101272.00;5233873;27;19937;-87
2024/04/18 02:19:07;;;;;;;;;;;;;;;5.84;59.51;101271.59;5238870;27;19935;-88
2024/04/18 02:21:32;;;;;;;;;;;;;;;5.85;58.88;101272.41;5234694;27;19936;-87
2024/04/18 02:23:58;;;;;;;;;;;;;;;5.82;59.72;101267.53;5236965;27;19931;-89
2024/04/18 02:26:23;;;;;;;;;;;;;;;5.79;59.73;101273.25;5227172;27;19999;-88
2024/04/18 02:28:48;;;;;;;;;;;;;;;5.78;59.51;101272.44;5242442;27;20285;-89
2024/04/18 02:31:13;;;;;;;;;;;;;;;5.79;59.87;101273.25;5223071;27;19932;-87
2024/04/18 02:33:38;;;;;;;;;;;;;;;5.78;59.50;101274.28;5234556;27;19931;-88
2024/04/18 02:36:03;;;;;;;;;;;;;;;5.78;59.56;101276.94;5238877;27;19959;-87
2024/04/18 02:38:29;;;;;;;;;;;;;;;5.79;59.86;101275.91;5231385;27;20350;-88
2024/04/18 02:41:00;;;;;;;;;;;;;;;5.78;59.91;101271.63;5231344;27;19935;-89
2024/04/18 02:43:26;;;;;;;;;;;;;;;5.78;59.72;101274.28;5235574;27;19984;-87
2024/04/18 02:45:52;;;;;;;;;;;;;;;5.78;59.39;101267.13;5223700;27;19944;-87
2024/04/18 02:48:17;;;;;;;;;;;;;;;5.78;59.95;101268.97;5228628;27;19932;-88
2024/04/18 02:50:42;;;;;;;;;;;;;;;5.73;60.02;101267.69;5226060;27;19960;-88
2024/04/18 02:53:09;;;;;;;;;;;;;;;5.71;59.74;101269.75;5231388;27;20402;-88
2024/04/18 02:55:34;;;;;;;;;;;;;;;5.67;60.35;101268.53;5229801;27;19938;-88
2024/04/18 02:58:00;;;;;;;;;;;;;;;5.66;60.10;101276.72;5233714;27;19931;-88
2024/04/18 03:00:25;;;;;;;;;;;;;;;5.66;59.83;101274.03;5235750;27;19936;-88
2024/04/18 03:02:50;;;;;;;;;;;;;;;5.68;59.51;101274.66;5242249;27;19938;-88
2024/04/18 03:05:16;;;;;;;;;;;;;;;5.67;59.59;101273.03;5221447;27;20377;-88
2024/04/18 03:07:41;;;;;;;;;;;;;;;5.64;59.20;101279.56;5225061;27;19956;-88
2024/04/18 03:10:06;;;;;;;;;;;;;;;5.58;59.73;101277.72;5229361;27;19939;-88
2024/04/18 03:12:32;;;;;;;;;;;;;;;5.60;59.56;101275.69;5224744;27;20274;-88
2024/04/18 03:14:57;;;;;;;;;;;;;;;5.58;59.22;101279.56;5228151;27;20371;-87
2024/04/18 03:17:22;;;;;;;;;;;;;;;5.59;59.96;101282.03;5227266;27;20002;-88
2024/04/18 03:19:47;;;;;;;;;;;;;;;5.59;59.58;101282.03;5227235;27;19932;-86
2024/04/18 03:22:12;;;;;;;;;;;;;;;5.60;59.86;101278.34;5232155;27;20784;-87
2024/04/18 03:24:38;;;;;;;;;;;;;;;5.59;59.50;101282.03;5235671;27;19939;-88
2024/04/18 03:27:03;;;;;;;;;;;;;;;5.60;59.51;101281.00;5238108;27;19931;-87
2024/04/18 03:29:28;;;;;;;;;;;;;;;5.59;60.33;101294.50;5232748;27;20610;-87
2024/04/18 03:31:53;;;;;;;;;;;;;;;5.55;60.32;101294.06;5233381;27;20002;-88
2024/04/18 03:34:19;;;;;;;;;;;;;;;5.54;60.00;101295.06;5233084;27;19951;-88
2024/04/18 03:36:47;;;;;;;;;;;;;;;5.56;59.68;101293.03;5239561;27;20578;-87
2024/04/18 03:39:13;;;;;;;;;;;;;;;5.57;60.64;101300.00;5228706;27;19942;-87
2024/04/18 03:41:41;;;;;;;;;;;;;;;5.59;60.46;101297.16;5233266;27;19935;-88
2024/04/18 03:44:07;;;;;;;;;;;;;;;5.61;60.41;101300.44;5226732;27;19932;-88
2024/04/18 03:46:32;;;;;;;;;;;;;;;5.64;60.76;101300.00;5236847;27;20003;-88
2024/04/18 03:48:57;;;;;;;;;;;;;;;5.66;60.85;101298.78;5233801;27;19939;-88
2024/04/18 03:51:26;;;;;;;;;;;;;;;5.69;60.62;101297.56;5221378;27;20003;-88
2024/04/18 03:53:51;;;;;;;;;;;;;;;5.72;60.55;101297.97;5225193;27;19939;-88
2024/04/18 03:56:16;;;;;;;;;;;;;;;5.75;60.56;101300.25;5243965;27;19932;-87
2024/04/18 03:58:42;;;;;;;;;;;;;;;5.76;60.50;101293.09;5231945;27;19932;-88
2024/04/18 04:01:07;;;;;;;;;;;;;;;5.77;60.86;101297.38;5230907;27;20257;-88
2024/04/18 04:03:32;;;;;;;;;;;;;;;5.78;61.00;101304.34;5224078;27;20014;-87
2024/04/18 04:05:57;;;;;;;;;;;;;;;5.79;61.26;101302.50;5238050;27;19943;-87
2024/04/18 04:08:22;;;;;;;;;;;;;;;5.78;61.24;101307.00;5237353;27;20269;-86
2024/04/18 04:10:48;;;;;;;;;;;;;;;5.79;61.60;101303.31;5234871;27;19938;-88
2024/04/18 04:13:14;;;;;;;;;;;;;;;5.81;61.08;101308.44;5233394;27;19939;-87
2024/04/18 04:15:39;;;;;;;;;;;;;;;5.83;61.05;101303.72;5233052;27;20348;-88
2024/04/18 04:18:04;;;;;;;;;;;;;;;5.87;61.34;101307.59;5229220;27;20559;-88
2024/04/18 04:20:29;;;;;;;;;;;;;;;5.90;61.31;101307.22;5233486;27;19932;-88
2024/04/18 04:22:54;;;;;;;;;;;;;;;5.91;62.43;101311.53;5244534;27;19939;-87
2024/04/18 04:25:19;;;;;;;;;;;;;;;5.89;61.73;101309.03;5240412;27;19968;-88
2024/04/18 04:27:45;;;;;;;;;;;;;;;5.92;61.80;101321.13;5242815;27;19948;-86
2024/04/18 04:30:10;;;;;;;;;;;;;;;5.93;61.98;101320.16;5240886;27;20363;-87
2024/04/18 04:32:36;;;;;;;;;;;;;;;5.97;61.80;101332.00;5226565;27;19938;-87
2024/04/18 04:35:01;;;;;;;;;;;;;;;5.98;62.01;101323.00;5229471;27;19948;-86
2024/04/18 04:37:26;;;;;;;;;;;;;;;6.00;61.93;101327.09;5243250;27;19937;-87
2024/04/18 04:39:51;;;;;;;;;;;;;;;6.05;61.59;101329.13;5236741;27;19932;-87
2024/04/18 04:42:16;;;;;;;;;;;;;;;6.07;61.45;101338.53;5235996;27;19938;-87
2024/04/18 04:44:42;;;;;;;;;;;;;;;6.11;61.18;101331.00;5239991;27;19943;-87
2024/04/18 04:47:09;;;;;;;;;;;;;;;6.13;61.88;101336.94;5241039;27;20046;-88
2024/04/18 04:49:35;;;;;;;;;;;;;;;6.15;61.52;101345.53;5196457;27;19939;-87
2024/04/18 04:52:00;;;;;;;;;;;;;;;6.16;61.92;101351.66;5240999;27;19932;-86
2024/04/18 04:54:26;;;;;;;;;;;;;;;6.19;61.42;101359.22;5235235;27;19965;-86
2024/04/18 04:56:51;;;;;;;;;;;;;;;6.18;62.15;101346.94;5236521;27;20021;-87
2024/04/18 04:59:16;;;;;;;;;;;;;;;6.18;61.93;101355.75;5239763;27;20386;-87
2024/04/18 05:01:41;;;;;;;;;;;;;;;6.18;62.51;101354.94;5238217;27;19939;-86
2024/04/18 05:04:06;;;;;;;;;;;;;;;6.15;63.12;101358.00;5230046;27;19931;-86
2024/04/18 05:06:31;;;;;;;;;;;;;;;6.13;63.22;101360.06;5204207;27;19931;-86
2024/04/18 05:08:57;;;;;;;;;;;;;;;6.14;62.46;101354.53;5241913;27;20269;-87
2024/04/18 05:11:23;;;;;;;;;;;;;;;6.19;63.02;101364.56;5236347;27;20475;-86
2024/04/18 05:13:48;;;;;;;;;;;;;;;6.23;62.43;101363.94;5248100;27;19931;-86
2024/04/18 05:16:13;;;;;;;;;;;;;;;6.26;61.87;101371.50;5232135;27;20309;-87
2024/04/18 05:18:38;;;;;;;;;;;;;;;6.29;62.30;101368.47;5232615;27;19959;-87
2024/04/18 05:21:05;;;;;;;;;;;;;;;6.32;62.46;101370.72;5232262;27;20012;-87
2024/04/18 05:23:30;;;;;;;;;;;;;;;6.37;61.82;101375.41;5228062;27;19987;-87
2024/04/18 05:25:55;;;;;;;;;;;;;;;6.40;61.43;101382.16;5243545;27;19979;-88
2024/04/18 05:28:29;;;;;;;;;;;;;;;6.45;61.42;101385.03;5230992;27;20372;-88
2024/04/18 05:31:01;;;;;;;;;;;;;;;6.49;61.80;101396.91;5239331;27;19999;-88
2024/04/18 05:33:26;;;;;;;;;;;;;;;6.49;62.24;101399.59;5238258;27;19944;-87
2024/04/18 05:35:52;;;;;;;;;;;;;;;6.51;62.18;101402.84;5224375;27;19932;-88
2024/04/18 05:38:17;;;;;;;;;;;;;;;6.47;62.82;101401.63;5233909;27;20373;-87
2024/04/18 05:40:42;;;;;;;;;;;;;;;6.44;62.31;101407.34;5235587;27;20004;-88
2024/04/18 05:43:07;;;;;;;;;;;;;;;6.46;62.54;101403.44;5233484;27;20277;-88
2024/04/18 05:45:32;;;;;;;;;;;;;;;6.48;63.40;101408.59;5235368;27;20043;-88
2024/04/18 05:47:58;;;;;;;;;;;;;;;6.43;63.95;101406.53;5239834;27;19931;-89
2024/04/18 05:50:23;;;;;;;;;;;;;;;6.44;63.43;101416.16;5237850;27;20006;-88
2024/04/18 05:52:49;;;;;;;;;;;;;;;6.50;63.25;101422.50;5237505;27;20364;-88
2024/04/18 05:55:14;;;;;;;;;;;;;;;6.57;63.83;101424.13;5233847;27;19942;-89
2024/04/18 05:57:39;;;;;;;;;;;;;;;6.70;63.39;101426.00;5234131;27;19932;-89
2024/04/18 06:00:05;;;;;;;;;;;;;;;6.84;63.75;101419.63;5235977;27;19942;-90
2024/04/18 06:02:30;;;;;;;;;;;;;;;6.97;63.49;101424.91;5230126;27;19940;-90
2024/04/18 06:04:55;;;;;;;;;;;;;;;7.13;63.14;101423.66;5236611;27;19938;-90
2024/04/18 06:07:20;;;;;;;;;;;;;;;7.25;63.67;101429.19;5233301;27;20003;-90
2024/04/18 06:09:45;;;;;;;;;;;;;;;7.34;63.10;101433.25;5247349;27;19939;-89
2024/04/18 06:12:12;;;;;;;;;;;;;;;7.46;62.62;101433.41;5242130;27;20519;-89
2024/04/18 06:14:37;;;;;;;;;;;;;;;7.57;62.93;101435.44;5227533;27;19932;-91
2024/04/18 06:17:02;;;;;;;;;;;;;;;7.66;63.33;101431.50;5234104;27;19932;-90
2024/04/18 06:19:27;;;;;;;;;;;;;;;7.71;62.88;101437.00;5238584;27;19963;-89
2024/04/18 06:21:53;;;;;;;;;;;;;;;7.74;63.10;101441.94;5229533;27;20335;-90
2024/04/18 06:24:18;;;;;;;;;;;;;;;7.82;63.06;101439.00;5230918;27;19959;-90
2024/04/18 06:26:43;;;;;;;;;;;;;;;7.88;62.91;101442.66;5232628;27;19936;-89
2024/04/18 06:29:09;;;;;;;;;;;;;;;7.92;62.73;101435.06;5246748;27;19932;-89
2024/04/18 06:31:34;;;;;;;;;;;;;;;8.00;63.29;101438.28;5231287;27;20284;-90
2024/04/18 06:34:00;;;;;;;;;;;;;;;8.11;62.99;101442.97;5229576;27;19931;-90
2024/04/18 06:36:25;;;;;;;;;;;;;;;8.20;63.66;101446.19;5230338;27;20004;-90
2024/04/18 06:38:50;;;;;;;;;;;;;;;8.24;62.87;101444.72;5243920;27;20332;-89
2024/04/18 06:41:15;;;;;;;;;;;;;;;8.29;63.13;101449.44;5229119;27;19944;-89
2024/04/18 06:43:41;;;;;;;;;;;;;;;8.31;63.42;101455.38;5232622;27;19932;-89
2024/04/18 06:46:06;;;;;;;;;;;;;;;8.41;62.97;101453.06;5237414;27;19932;-89
2024/04/18 06:48:31;;;;;;;;;;;;;;;8.51;63.61;101453.41;5243829;27;19944;-89
2024/04/18 06:50:56;;;;;;;;;;;;;;;8.63;63.36;101462.34;5235422;27;19939;-89
2024/04/18 06:53:21;;;;;;;;;;;;;;;8.73;62.93;101470.69;5224990;27;20472;-90
2024/04/18 06:55:47;;;;;;;;;;;;;;;8.84;63.61;101469.16;5238130;27;19939;-90
2024/04/18 06:58:12;;;;;;;;;;;;;;;8.94;63.32;101471.34;5224930;27;19932;-90
2024/04/18 07:00:38;;;;;;;;;;;;;;;9.08;63.53;101473.66;5228721;27;19948;-90
2024/04/18 07:03:07;;;;;;;;;;;;;;;9.20;63.28;101470.28;5240075;27;20392;-89
2024/04/18 07:05:32;;;;;;;;;;;;;;;9.29;63.41;101482.31;5225231;27;19939;-89
2024/04/18 07:07:57;;;;;;;;;;;;;;;9.42;63.04;101481.34;5239134;27;19947;-90
2024/04/18 07:10:23;;;;;;;;;;;;;;;9.55;62.72;101483.91;5229857;27;19940;-89
2024/04/18 07:12:49;;;;;;;;;;;;;;;9.62;62.44;101472.06;5238559;27;19936;-90
2024/04/18 07:15:14;;;;;;;;;;;;;;;9.79;61.84;101482.97;5240394;27;19979;-89
2024/04/18 07:17:40;;;;;;;;;;;;;;;10.03;61.88;101488.44;5226017;27;19943;-89
2024/04/18 07:20:06;;;;;;;;;;;;;;;10.28;61.94;101489.16;5247035;27;19931;-89
2024/04/18 07:22:31;;;;;;;;;;;;;;;10.54;61.54;101491.44;5221421;27;19940;-90
2024/04/18 07:24:56;;;;;;;;;;;;;;;10.69;61.26;101488.34;5236652;27;19940;-90
2024/04/18 07:27:21;;;;;;;;;;;;;;;10.81;61.25;101491.84;5239085;27;20077;-89
2024/04/18 07:29:46;;;;;;;;;;;;;;;10.91;61.13;101493.94;5241075;27;19939;-87
2024/04/18 07:32:12;;;;;;;;;;;;;;;10.97;60.71;101487.69;5210985;27;19940;-89
2024/04/18 07:34:37;;;;;;;;;;;;;;;11.04;60.60;101496.41;5235091;27;19948;-88
2024/04/18 07:37:02;;;;;;;;;;;;;;;11.11;60.25;101491.75;5225757;27;20829;-88
2024/04/18 07:39:28;;;;;;;;;;;;;;;11.19;60.36;101488.72;5231252;27;19932;-89
2024/04/18 07:41:53;;;;;;;;;;;;;;;11.27;60.35;101490.22;5229798;27;19932;-89
2024/04/18 07:44:19;;;;;;;;;;;;;;;11.37;60.45;101489.66;5225038;27;19943;-90
2024/04/18 07:46:44;;;;;;;;;;;;;;;11.46;59.87;101486.34;5243635;27;19943;-89
2024/04/18 07:49:10;;;;;;;;;;;;;;;11.64;60.39;101492.63;5246467;27;19938;-89
2024/04/18 07:51:35;;;;;;;;;;;;;;;11.87;60.42;101489.13;5251871;27;19940;-90
2024/04/18 07:54:01;;;;;;;;;;;;;;;11.93;59.57;101488.97;5237709;27;20049;-90
2024/04/18 07:56:26;;;;;;;;;;;;;;;11.99;58.40;101495.25;5254059;27;20280;-90
2024/04/18 07:58:51;;;;;;;;;;;;;;;11.98;58.78;101491.75;5240021;27;19939;-89
2024/04/18 08:01:16;;;;;;;;;;;;;;;11.94;57.67;101495.97;5245213;27;19937;-89
2024/04/18 08:03:41;;;;;;;;;;;;;;;11.88;58.17;101498.81;5248927;27;20027;-90
2024/04/18 08:06:07;;;;;;;;;;;;;;;11.85;58.42;101494.72;5233780;27;20343;-89
2024/04/18 08:08:32;;;;;;;;;;;;;;;11.86;58.36;101503.59;5243211;27;19936;-90
2024/04/18 08:10:57;;;;;;;;;;;;;;;11.84;57.18;101503.00;5247251;27;19931;-89
2024/04/18 08:13:23;;;;;;;;;;;;;;;11.86;57.79;101504.41;5229862;27;19939;-90
2024/04/18 08:15:49;;;;;;;;;;;;;;;12.06;58.25;101506.69;5220171;27;19931;-90
2024/04/18 08:18:16;;;;;;;;;;;;;;;12.35;59.16;101499.41;5224915;27;19978;-90
2024/04/18 08:20:42;;;;;;;;;;;;;;;12.59;57.57;101498.25;5231726;27;20388;-90
2024/04/18 08:23:07;;;;;;;;;;;;;;;12.74;56.57;101510.28;5219106;27;19932;-90
2024/04/18 08:25:32;;;;;;;;;;;;;;;12.86;56.69;101506.47;5237120;27;20389;-90
2024/04/18 08:27:57;;;;;;;;;;;;;;;13.01;56.66;101506.72;5242136;27;20373;-88
2024/04/18 08:30:22;;;;;;;;;;;;;;;13.07;56.24;101509.47;5227115;27;19959;-90
2024/04/18 08:32:47;;;;;;;;;;;;;;;13.10;55.84;101509.78;5244482;27;19946;-90
2024/04/18 08:35:16;;;;;;;;;;;;;;;13.15;56.10;101509.09;5245482;27;19980;-90
2024/04/18 08:37:41;;;;;;;;;;;;;;;13.32;55.53;101514.47;5250148;27;19932;-90
2024/04/18 08:40:07;;;;;;;;;;;;;;;13.47;55.80;101504.72;5255132;27;19931;-90
2024/04/18 08:42:32;;;;;;;;;;;;;;;13.59;54.50;101508.09;5243594;27;19944;-90
2024/04/18 08:44:58;;;;;;;;;;;;;;;13.60;53.77;101501.66;5252323;27;19951;-90
2024/04/18 08:47:24;;;;;;;;;;;;;;;13.60;53.58;101504.34;5239306;27;20568;-90
2024/04/18 08:49:50;;;;;;;;;;;;;;;13.53;53.63;101498.34;5237977;27;20049;-90
2024/04/18 08:52:17;;;;;;;;;;;;;;;13.50;54.32;101496.16;5246376;27;20399;-90
2024/04/18 08:54:43;;;;;;;;;;;;;;;13.51;54.15;101497.78;5247432;27;19931;-89
2024/04/18 08:57:08;;;;;;;;;;;;;;;13.57;53.74;101498.66;5239158;27;19939;-90
2024/04/18 08:59:34;;;;;;;;;;;;;;;13.57;51.39;101499.47;5231466;27;19932;-89
2024/04/18 09:01:59;;;;;;;;;;;;;;;13.59;53.30;101494.66;5237318;27;19931;-90
2024/04/18 09:04:25;;;;;;;;;;;;;;;13.68;53.75;101489.66;5231506;27;19932;-89
2024/04/18 09:06:50;;;;;;;;;;;;;;;13.88;54.00;101497.97;5226133;27;19940;-90
2024/04/18 09:09:18;;;;;;;;;;;;;;;14.10;53.89;101481.78;5234511;27;19939;-90
2024/04/18 09:11:46;;;;;;;;;;;;;;;14.34;52.89;101482.28;5235990;27;19932;-90
2024/04/18 09:14:14;;;;;;;;;;;;;;;14.48;52.60;101488.09;5245645;27;19936;-90
2024/04/18 09:16:39;;;;;;;;;;;;;;;14.47;50.10;101490.00;5243453;27;19931;-89
2024/04/18 09:19:05;;;;;;;;;;;;;;;14.42;50.21;101489.91;5243075;27;19942;-89
2024/04/18 09:21:30;;;;;;;;;;;;;;;14.28;49.06;101493.28;5245424;27;19975;-90
2024/04/18 09:23:56;;;;;;;;;;;;;;;14.18;50.52;101488.59;5242660;27;19940;-90
2024/04/18 09:26:25;;;;;;;;;;;;;;;14.13;50.39;101494.75;5228725;27;19976;-90
2024/04/18 09:28:50;;;;;;;;;;;;;;;14.08;50.33;101493.88;5234908;27;20039;-89
2024/04/18 09:31:19;;;;;;;;;;;;;;;14.00;50.68;101494.31;5239303;27;19932;-89
2024/04/18 09:33:44;;;;;;;;;;;;;;;13.98;50.88;101507.22;5231407;27;19976;-90
2024/04/18 09:36:11;;;;;;;;;;;;;;;14.02;50.39;101506.50;5245173;27;20001;-90
2024/04/18 09:38:39;;;;;;;;;;;;;;;14.08;50.64;101500.09;5236275;27;19936;-90
2024/04/18 09:41:12;;;;;;;;;;;;;;;14.16;50.10;101499.63;5234264;27;19943;-89
2024/04/18 09:43:56;;;;;;;;;;;;;;;14.24;49.81;101497.56;5238011;27;19936;-90
2024/04/18 09:46:22;;;;;;;;;;;;;;;14.30;50.92;101496.53;5235950;27;20014;-90
2024/04/18 09:48:48;;;;;;;;;;;;;;;14.37;50.46;101489.06;5248077;27;20381;-90
2024/04/18 09:51:14;;;;;;;;;;;;;;;14.45;50.01;101489.44;5246745;27;19931;-89
2024/04/18 09:53:41;;;;;;;;;;;;;;;14.56;50.36;101484.97;5234809;27;19952;-89
2024/04/18 09:56:06;;;;;;;;;;;;;;;14.68;50.59;101480.19;5239912;27;19943;-90
2024/04/18 09:58:31;;;;;;;;;;;;;;;14.76;49.06;101485.13;5239000;27;20457;-90
2024/04/18 10:00:57;;;;;;;;;;;;;;;14.85;49.95;101481.94;5248656;27;19931;-90
2024/04/18 10:03:24;;;;;;;;;;;;;;;14.94;49.86;101475.81;5227865;27;19931;-90
2024/04/18 10:05:51;;;;;;;;;;;;;;;15.28;nan;101479.00;5236654;27;19939;-90
2024/04/18 10:08:17;;;;;;;;;;;;;;;15.62;nan;101470.56;5238773;27;19936;-90
2024/04/18 10:10:43;;;;;;;;;;;;;;;15.91;nan;101474.44;5235379;27;20261;-89
2024/04/18 10:13:09;;;;;;;;;;;;;;;15.92;nan;101481.47;5239061;27;19931;-90
2024/04/18 10:15:34;;;;;;;;;;;;;;;15.65;nan;101483.53;5229695;27;20468;-89
2024/04/18 10:17:59;;;;;;;;;;;;;;;15.31;nan;101485.75;5239547;27;19931;-89
2024/04/18 10:20:30;;;;;;;;;;;;;;;15.07;nan;101479.94;5233333;27;19932;-90
2024/04/18 10:23:00;;;;;;;;;;;;;;;14.88;nan;101481.41;5241417;27;19938;-90
2024/04/18 10:25:25;;;;;;;;;;;;;;;14.70;nan;101480.75;5238975;27;19936;-90
2024/04/18 10:27:50;;;;;;;;;;;;;;;14.56;nan;101476.88;5232003;27;19951;-90
2024/04/18 10:30:18;;;;;;;;;;;;;;;14.50;nan;101476.00;5227197;27;19932;-90
2024/04/18 10:32:44;;;;;;;;;;;;;;;14.51;nan;101482.19;5241284;27;19936;-90
2024/04/18 10:35:10;;;;;;;;;;;;;;;14.64;nan;101470.19;5243183;27;19935;-90
2024/04/18 10:37:35;;;;;;;;;;;;;;;14.84;nan;101474.91;5227755;27;19981;-90
2024/04/18 10:40:02;;;;;;;;;;;;;;;15.01;nan;101470.19;5237945;27;19932;-91
2024/04/18 10:42:28;;;;;;;;;;;;;;;15.09;nan;101465.13;5238012;27;19939;-90
2024/04/18 10:44:54;;;;;;;;;;;;;;;15.29;nan;101464.44;5243001;27;19959;-90
2024/04/18 10:47:20;;;;;;;;;;;;;;;15.53;nan;101462.09;5234379;27;19931;-88
2024/04/18 10:49:46;;;;;;;;;;;;;;;15.67;nan;101449.78;5234091;27;19931;-90
2024/04/18 10:52:14;;;;;;;;;;;;;;;15.73;nan;101456.00;5235269;27;19938;-89
2024/04/18 10:54:39;;;;;;;;;;;;;;;15.73;nan;101460.59;5238801;27;20453;-90
2024/04/18 10:57:04;;;;;;;;;;;;;;;15.66;nan;101471.66;5231869;27;19944;-88
2024/04/18 10:59:30;;;;;;;;;;;;;;;15.48;nan;101475.59;5232663;27;19939;-90
2024/04/18 11:02:05;;;;;;;;;;;;;;;15.34;nan;101477.13;5241762;27;19932;-90
2024/04/18 11:04:31;;;;;;;;;;;;;;;15.23;nan;101478.94;5227561;27;19940;-90
2024/04/18 11:06:56;;;;;;;;;;;;;;;15.19;nan;101477.84;5243757;27;20006;-89
2024/04/18 11:09:21;;;;;;;;;;;;;;;15.17;nan;101481.91;5232316;27;20325;-88
2024/04/18 11:11:47;;;;;;;;;;;;;;;15.12;nan;101477.28;5236303;27;20356;-90
2024/04/18 11:14:13;;;;;;;;;;;;;;;15.08;nan;101476.16;5245112;27;19986;-87
2024/04/18 11:16:38;;;;;;;;;;;;;;;15.06;nan;101478.31;5241406;27;20327;-88
2024/04/18 11:19:03;;;;;;;;;;;;;;;15.04;nan;101477.75;5219334;27;20001;-88
2024/04/18 11:21:29;;;;;;;;;;;;;;;15.05;nan;101479.38;5205446;27;19940;-89
2024/04/18 11:23:55;;;;;;;;;;;;;;;15.08;nan;101485.09;5231529;27;20002;-88
2024/04/18 11:26:20;;;;;;;;;;;;;;;15.10;nan;101482.13;5228799;27;20586;-89
2024/04/18 11:28:50;;;;;;;;;;;;;;;15.11;nan;101489.16;5225594;27;19939;-88
2024/04/18 11:31:15;;;;;;;;;;;;;;;15.11;nan;101489.97;5232090;27;20366;-90
2024/04/18 11:33:40;;;;;;;;;;;;;;;15.10;nan;101496.44;5217510;27;19939;-91
2024/04/18 11:36:06;;;;;;;;;;;;;;;15.08;nan;101497.75;5232366;27;19932;-90
2024/04/18 11:38:33;;;;;;;;;;;;;;;15.01;nan;101497.97;5244518;27;19938;-91
2024/04/18 11:40:58;;;;;;;;;;;;;;;14.99;nan;101489.34;5237613;27;19939;-90
2024/04/18 11:43:23;;;;;;;;;;;;;;;14.94;nan;101491.19;5226656;27;19939;-90
2024/04/18 11:45:49;;;;;;;;;;;;;;;14.87;nan;101485.19;5240559;27;19944;-91
2024/04/18 11:48:14;;;;;;;;;;;;;;;14.84;nan;101480.31;5226452;27;19946;-90
2024/04/18 11:50:39;;;;;;;;;;;;;;;14.86;nan;101487.06;5230408;27;20002;-90
2024/04/18 11:53:04;;;;;;;;;;;;;;;14.91;nan;101489.00;5236767;27;19931;-90
2024/04/18 11:55:30;;;;;;;;;;;;;;;15.03;nan;101482.34;5232679;27;19939;-90
2024/04/18 11:57:55;;;;;;;;;;;;;;;15.30;nan;101482.25;5225868;27;19946;-90
2024/04/18 12:00:20;;;;;;;;;;;;;;;15.61;nan;101485.13;5234851;27;19931;-90
2024/04/18 12:02:45;;;;;;;;;;;;;;;15.77;nan;101481.41;5228127;27;19939;-90
2024/04/18 12:05:10;;;;;;;;;;;;;;;15.84;nan;101500.09;5235345;27;20670;-90
2024/04/18 12:07:36;;;;;;;;;;;;;;;15.76;nan;101498.69;5221690;27;19932;-90
2024/04/18 12:10:01;;;;;;;;;;;;;;;15.66;nan;101509.47;5241678;27;20048;-90
2024/04/18 12:12:26;;;;;;;;;;;;;;;15.52;nan;101508.28;5225392;27;19964;-88
2024/04/18 12:14:54;;;;;;;;;;;;;;;15.40;nan;101506.59;5229836;27;19944;-90
2024/04/18 12:17:19;;;;;;;;;;;;;;;15.30;nan;101501.16;5236652;27;19970;-88
2024/04/18 12:19:44;;;;;;;;;;;;;;;15.23;nan;101488.94;5229471;27;19932;-90
2024/04/18 12:22:15;;;;;;;;;;;;;;;15.15;nan;101479.47;5228508;27;20019;-90
2024/04/18 12:24:40;;;;;;;;;;;;;;;15.14;nan;101483.22;5224008;27;19943;-91
2024/04/18 12:27:06;;;;;;;;;;;;;;;15.15;nan;101481.34;5234660;27;19939;-90
2024/04/18 12:29:31;;;;;;;;;;;;;;;15.14;nan;101491.31;5232422;27;19957;-91
2024/04/18 12:31:56;;;;;;;;;;;;;;;15.12;nan;101506.97;5228025;27;19932;-90
2024/04/18 12:34:21;;;;;;;;;;;;;;;15.12;nan;101525.88;5225519;27;20900;-90
2024/04/18 12:36:47;;;;;;;;;;;;;;;15.03;nan;101524.72;5243305;27;20374;-89